Time;durP1;ratioP1;P1;durP2;ratioP2;P2;SDS_P1;SDS_P2;PMS_P1;PMS_P2;Temp;Humidity;BMP_temperature;BMP_pressure;BME280_temperature;BME280_humidity;BME280_pressure;Samples;Min_cycle;Max_cycle;Signal;HPM_P1;HPM_P2
2021/01/25 00:01:44;;;;;;;13.93;7.75;;;1.10;99.90;;;;;;5020628;28;20034;-89
2021/01/25 00:04:12;;;;;;;9.93;6.68;;;1.10;99.90;;;;;;5022095;28;20101;-88
2021/01/25 00:06:37;;;;;;;9.55;6.38;;;1.10;99.90;;;;;;5022133;28;20021;-90
2021/01/25 00:09:17;;;;;;;14.07;7.85;;;1.10;99.90;;;;;;5059654;23;20106;-88
2021/01/25 00:11:44;;;;;;;12.18;7.53;;;1.30;99.90;;;;;;4952002;28;20050;-91
2021/01/25 00:14:13;;;;;;;14.48;8.00;;;1.50;99.90;;;;;;4981871;28;20054;-91
2021/01/25 00:16:40;;;;;;;12.23;7.45;;;1.00;99.90;;;;;;5014517;28;20015;-88
2021/01/25 00:19:08;;;;;;;16.80;8.18;;;1.00;99.90;;;;;;5002725;28;20022;-89
2021/01/25 00:21:35;;;;;;;16.10;7.80;;;1.00;99.90;;;;;;4976823;28;20031;-90
2021/01/25 00:24:01;;;;;;;11.40;6.97;;;1.50;99.90;;;;;;4972494;28;20047;-91
2021/01/25 00:26:27;;;;;;;11.32;7.40;;;1.00;99.90;;;;;;4961933;28;20042;-92
2021/01/25 00:28:53;;;;;;;11.10;6.80;;;0.90;99.90;;;;;;4943628;28;20040;-90
2021/01/25 00:31:19;;;;;;;13.07;7.85;;;0.90;99.90;;;;;;4916114;29;20188;-93
2021/01/25 00:33:47;;;;;;;13.63;7.70;;;0.90;99.90;;;;;;4896886;29;20058;-93
2021/01/25 00:36:14;;;;;;;13.48;7.30;;;0.90;99.90;;;;;;4872520;29;20063;-90
2021/01/25 00:38:40;;;;;;;10.52;6.47;;;1.60;99.90;;;;;;4881411;29;20044;-90
2021/01/25 00:41:06;;;;;;;12.90;7.45;;;0.90;99.90;;;;;;4881023;29;20112;-91
2021/01/25 00:43:37;;;;;;;14.65;6.75;;;0.80;99.90;;;;;;4884446;29;20116;-90
2021/01/25 00:46:06;;;;;;;10.65;6.28;;;0.80;99.90;;;;;;4883138;29;20131;-90
2021/01/25 00:48:32;;;;;;;12.10;6.70;;;0.80;99.90;;;;;;4876721;29;20551;-90
2021/01/25 00:51:11;;;;;;;9.10;5.45;;;0.80;99.90;;;;;;4877162;29;20041;-92
2021/01/25 00:53:37;;;;;;;8.18;5.40;;;0.80;99.90;;;;;;4867573;29;20057;-92
2021/01/25 00:56:03;;;;;;;13.15;6.00;;;0.80;99.90;;;;;;4911931;29;20146;-92
2021/01/25 00:58:31;;;;;;;10.93;6.20;;;0.80;99.90;;;;;;4925216;29;20052;-94
2021/01/25 01:00:59;;;;;;;10.75;6.00;;;0.80;99.90;;;;;;4969447;28;20031;-93
2021/01/25 01:08:41;;;;;;;12.88;7.05;;;0.80;99.90;;;;;;5102752;23;20044;-95
2021/01/25 01:11:30;;;;;;;12.65;6.78;;;1.40;99.90;;;;;;5062920;23;20045;-94
2021/01/25 01:13:59;;;;;;;11.80;6.88;;;0.90;99.90;;;;;;5184348;23;20046;-94
2021/01/25 01:16:25;;;;;;;11.77;7.38;;;0.80;99.90;;;;;;4982660;28;20076;-94
2021/01/25 01:18:51;;;;;;;12.02;8.38;;;0.50;99.90;;;;;;4992383;28;20026;-93
2021/01/25 01:21:16;;;;;;;15.10;8.38;;;0.60;99.90;;;;;;4987669;28;20030;-94
2021/01/25 01:23:43;;;;;;;12.85;8.02;;;1.80;99.90;;;;;;5014272;28;20090;-93
2021/01/25 01:26:09;;;;;;;16.38;7.60;;;0.90;99.90;;;;;;4983447;28;20022;-93
2021/01/25 01:28:35;;;;;;;10.30;6.35;;;0.90;99.90;;;;;;5008818;28;20026;-93
2021/01/25 01:31:03;;;;;;;10.88;6.30;;;1.40;99.90;;;;;;5017062;28;20046;-92
2021/01/25 01:33:29;;;;;;;9.65;6.32;;;0.90;99.90;;;;;;5000305;28;20032;-92
2021/01/25 01:36:00;;;;;;;9.40;6.15;;;0.80;99.90;;;;;;4984507;28;20058;-91
2021/01/25 01:38:26;;;;;;;14.48;6.80;;;0.80;99.90;;;;;;4999721;28;20014;-89
2021/01/25 01:40:51;;;;;;;11.13;5.88;;;0.80;99.90;;;;;;5016627;28;20033;-91
2021/01/25 01:43:17;;;;;;;7.75;5.13;;;0.80;99.90;;;;;;4999177;28;20018;-92
2021/01/25 01:45:48;;;;;;;9.43;5.28;;;0.80;99.90;;;;;;5011848;28;20044;-91
2021/01/25 01:48:16;;;;;;;8.00;5.10;;;1.40;99.90;;;;;;5021412;28;20030;-91
2021/01/25 01:50:42;;;;;;;8.43;5.00;;;0.80;99.90;;;;;;5019302;28;20030;-90
2021/01/25 01:53:08;;;;;;;9.20;5.05;;;0.80;99.90;;;;;;5031549;28;20025;-88
2021/01/25 01:55:34;;;;;;;10.15;5.78;;;1.70;99.90;;;;;;5019090;28;20030;-89
2021/01/25 01:58:05;;;;;;;7.85;4.88;;;1.40;99.90;;;;;;5008059;28;20086;-87
2021/01/25 02:00:30;;;;;;;10.93;5.53;;;0.80;99.90;;;;;;5016753;28;20015;-88
2021/01/25 02:02:57;;;;;;;8.93;5.63;;;1.20;99.90;;;;;;4999298;28;20065;-92
2021/01/25 02:05:23;;;;;;;10.60;5.60;;;0.70;99.90;;;;;;4999245;28;20028;-91
2021/01/25 02:07:58;;;;;;;10.45;5.72;;;1.30;99.90;;;;;;5019858;28;20030;-92
2021/01/25 02:10:27;;;;;;;9.05;5.22;;;1.10;99.90;;;;;;5028398;28;20050;-92
2021/01/25 02:13:02;;;;;;;9.20;5.90;;;0.70;99.90;;;;;;4997486;28;20126;-89
2021/01/25 02:15:33;;;;;;;9.50;5.90;;;0.60;99.90;;;;;;5015553;28;20050;-91
2021/01/25 02:18:02;;;;;;;;;;;0.60;99.90;;;;;;4994682;28;20347;-91
2021/01/25 02:20:37;;;;;;;11.50;7.13;;;0.70;99.90;;;;;;5013143;28;19976;-91
2021/01/25 02:23:42;;;;;;;10.43;6.20;;;0.60;99.90;;;;;;4996673;28;20049;-92
2021/01/25 02:26:59;;;;;;;11.25;6.45;;;0.60;99.90;;;;;;4979977;28;20026;-93
2021/01/25 02:29:27;;;;;;;10.45;5.75;;;0.60;99.90;;;;;;4883125;29;20479;-92
2021/01/25 02:31:55;;;;;;;12.27;7.15;;;0.70;99.90;;;;;;4895216;29;20075;-93
2021/01/25 02:34:29;;;;;;;10.15;6.07;;;1.20;99.90;;;;;;4902077;29;20510;-93
2021/01/25 02:36:57;;;;;;;14.25;7.13;;;0.70;99.90;;;;;;4886406;29;20040;-92
2021/01/25 02:39:24;;;;;;;10.80;6.93;;;0.70;99.90;;;;;;4895602;29;20545;-90
2021/01/25 02:41:53;;;;;;;9.88;6.93;;;0.70;99.90;;;;;;4888685;29;20036;-90
2021/01/25 02:44:20;;;;;;;9.52;6.03;;;0.70;99.90;;;;;;4882364;29;20498;-91
2021/01/25 02:46:46;;;;;;;9.75;6.60;;;0.70;99.90;;;;;;4894550;29;20088;-96
2021/01/25 02:49:12;;;;;;;9.48;6.03;;;0.90;99.90;;;;;;4914193;29;20092;-90
2021/01/25 02:51:37;;;;;;;11.73;6.60;;;0.80;99.90;;;;;;4892978;29;20033;-90
2021/01/25 02:54:03;;;;;;;7.63;4.88;;;1.00;99.90;;;;;;4875268;29;20386;-90
2021/01/25 02:56:32;;;;;;;8.40;5.28;;;0.70;99.90;;;;;;4876372;29;20212;-90
2021/01/25 02:58:59;;;;;;;13.30;5.18;;;1.00;99.90;;;;;;4880448;29;20100;-90
2021/01/25 03:01:26;;;;;;;8.85;5.78;;;1.30;99.90;;;;;;4864165;29;20085;-89
2021/01/25 03:03:57;;;;;;;9.98;5.82;;;0.70;99.90;;;;;;4948842;28;20460;-89
2021/01/25 03:06:25;;;;;;;12.23;5.72;;;0.80;99.90;;;;;;4959372;28;20038;-90
2021/01/25 03:08:51;;;;;;;10.10;5.63;;;0.80;99.90;;;;;;4969368;28;20162;-90
2021/01/25 03:11:24;;;;;;;10.98;5.40;;;1.10;99.90;;;;;;4999892;28;20034;-89
2021/01/25 03:13:52;;;;;;;13.45;6.60;;;0.90;99.90;;;;;;5002057;28;20042;-90
2021/01/25 03:16:20;;;;;;;10.18;5.35;;;0.80;99.90;;;;;;5002674;28;20014;-88
2021/01/25 03:18:46;;;;;;;9.80;6.32;;;0.90;99.90;;;;;;5018553;28;20098;-89
2021/01/25 03:21:11;;;;;;;11.23;6.50;;;0.70;99.90;;;;;;4997452;28;20038;-90
2021/01/25 03:23:39;;;;;;;12.27;6.00;;;0.80;99.90;;;;;;5004625;28;20033;-92
2021/01/25 03:26:05;;;;;;;8.52;5.70;;;0.70;99.90;;;;;;5034650;28;20025;-92
2021/01/25 03:28:31;;;;;;;10.07;6.15;;;0.70;99.90;;;;;;5004102;28;20042;-90
2021/01/25 03:30:57;;;;;;;11.77;7.07;;;0.80;99.90;;;;;;5018510;28;20097;-91
2021/01/25 03:33:23;;;;;;;12.95;6.68;;;0.70;99.90;;;;;;5017671;28;20022;-91
2021/01/25 03:35:49;;;;;;;15.60;6.50;;;0.60;99.90;;;;;;4995919;28;20044;-92
2021/01/25 03:38:16;;;;;;;13.32;7.72;;;0.60;99.90;;;;;;4982768;28;20109;-92
2021/01/25 03:40:44;;;;;;;12.43;7.38;;;0.60;99.90;;;;;;4999404;28;20030;-95
2021/01/25 03:43:15;;;;;;;9.52;6.63;;;0.60;99.90;;;;;;5001171;28;20028;-93
2021/01/25 03:45:41;;;;;;;12.52;8.25;;;0.60;99.90;;;;;;5000930;28;20014;-92
2021/01/25 03:48:08;;;;;;;13.15;7.30;;;0.60;99.90;;;;;;5003583;28;20033;-92
2021/01/25 03:50:38;;;;;;;12.93;7.63;;;0.60;99.90;;;;;;5011063;28;20034;-92
2021/01/25 03:53:04;;;;;;;12.65;5.85;;;0.50;99.90;;;;;;5012128;28;20038;-92
2021/01/25 03:55:30;;;;;;;14.10;8.63;;;0.60;99.90;;;;;;4996758;28;20104;-92
2021/01/25 03:57:57;;;;;;;15.93;8.60;;;1.00;99.90;;;;;;4996687;28;20038;-92
2021/01/25 04:00:25;;;;;;;14.88;8.73;;;0.50;99.90;;;;;;4994176;28;20185;-91
2021/01/25 04:02:51;;;;;;;13.27;8.02;;;0.60;99.90;;;;;;4995473;28;20084;-90
2021/01/25 04:05:20;;;;;;;13.75;8.63;;;0.70;99.90;;;;;;5003785;28;20045;-91
2021/01/25 04:07:47;;;;;;;11.70;7.80;;;0.60;99.90;;;;;;5007886;28;20038;-90
2021/01/25 04:10:15;;;;;;;13.57;9.15;;;0.70;99.90;;;;;;5000359;28;20054;-90
2021/01/25 04:12:41;;;;;;;16.35;9.95;;;0.90;99.90;;;;;;4997554;28;20011;-94
2021/01/25 04:15:10;;;;;;;15.18;8.45;;;1.10;99.90;;;;;;5014737;28;20068;-93
2021/01/25 04:17:38;;;;;;;15.23;9.10;;;0.80;99.90;;;;;;4986214;28;20035;-93
2021/01/25 04:20:08;;;;;;;14.93;8.38;;;0.60;99.90;;;;;;4974343;28;20130;-92
2021/01/25 04:22:40;;;;;;;13.45;8.57;;;0.60;99.90;;;;;;4993488;28;20049;-92
2021/01/25 04:25:09;;;;;;;13.25;8.32;;;0.60;99.90;;;;;;4994915;28;20034;-93
2021/01/25 04:27:35;;;;;;;15.95;9.68;;;0.50;99.90;;;;;;4966086;28;20036;-92
2021/01/25 04:30:01;;;;;;;15.65;10.23;;;0.60;99.90;;;;;;4940084;29;20043;-89
2021/01/25 04:32:27;;;;;;;15.25;9.65;;;0.50;99.90;;;;;;4968092;29;20118;-91
2021/01/25 04:34:54;;;;;;;14.68;9.65;;;1.00;99.90;;;;;;4953534;29;20046;-93
2021/01/25 04:37:22;;;;;;;17.00;9.75;;;0.50;99.90;;;;;;4939265;29;20042;-91
2021/01/25 04:39:49;;;;;;;14.68;10.02;;;0.90;99.90;;;;;;4938896;29;20020;-92
2021/01/25 04:42:15;;;;;;;15.15;9.70;;;0.40;99.90;;;;;;4934860;29;20107;-92
2021/01/25 04:44:43;;;;;;;15.70;9.82;;;0.90;99.90;;;;;;4897849;29;20058;-92
2021/01/25 04:47:09;;;;;;;16.27;10.68;;;0.40;99.90;;;;;;4883726;29;20064;-93
2021/01/25 04:49:38;;;;;;;16.35;10.43;;;0.50;99.90;;;;;;4867568;29;20069;-92
2021/01/25 04:52:07;;;;;;;17.02;10.15;;;0.90;99.90;;;;;;4870726;29;20025;-92
2021/01/25 04:54:33;;;;;;;17.58;11.30;;;0.90;99.90;;;;;;4881004;29;20615;-92
2021/01/25 04:57:00;;;;;;;20.23;11.95;;;0.40;99.90;;;;;;4909577;29;20036;-92
2021/01/25 04:59:27;;;;;;;17.55;11.10;;;1.00;99.90;;;;;;4893026;29;20069;-91
2021/01/25 05:01:53;;;;;;;20.58;12.10;;;0.40;99.90;;;;;;4886685;29;20026;-93
2021/01/25 05:04:19;;;;;;;17.00;11.18;;;1.00;99.90;;;;;;4907585;29;20228;-93
2021/01/25 05:06:47;;;;;;;19.77;11.60;;;0.40;99.90;;;;;;4905895;29;20033;-92
2021/01/25 05:09:19;;;;;;;19.08;11.40;;;0.40;99.90;;;;;;4901455;29;20036;-92
2021/01/25 05:12:04;;;;;;;18.35;11.38;;;0.40;99.90;;;;;;4917461;29;20043;-93
2021/01/25 05:14:41;;;;;;;20.70;11.95;;;0.40;99.90;;;;;;4919667;28;20056;-93
2021/01/25 05:17:13;;;;;;;22.17;12.20;;;0.40;99.90;;;;;;4969753;28;20366;-93
2021/01/25 05:19:46;;;;;;;20.42;12.52;;;0.50;99.90;;;;;;4980690;28;20030;-93
2021/01/25 05:22:21;;;;;;;19.50;11.77;;;0.40;99.90;;;;;;4970450;28;20034;-93
2021/01/25 05:24:53;;;;;;;23.17;12.98;;;0.40;99.90;;;;;;4980624;28;20137;-91
2021/01/25 05:27:30;;;;;;;24.38;12.73;;;0.60;99.90;;;;;;4948682;28;20046;-93
2021/01/25 05:30:08;;;;;;;22.65;11.05;;;0.50;99.90;;;;;;4995248;28;20026;-93
2021/01/25 05:32:47;;;;;;;20.67;12.90;;;0.40;99.90;;;;;;4998189;28;20022;-92
2021/01/25 05:35:18;;;;;;;21.67;13.32;;;0.40;99.90;;;;;;4998048;28;20044;-92
2021/01/25 05:37:55;;;;;;;19.25;13.13;;;0.50;99.90;;;;;;4997188;28;20058;-92
2021/01/25 05:40:29;;;;;;;20.27;12.45;;;1.10;99.90;;;;;;4980150;28;20339;-93
2021/01/25 05:43:00;;;;;;;22.48;14.13;;;0.50;99.90;;;;;;4981352;28;20100;-93
2021/01/25 05:45:30;;;;;;;;;;;0.40;99.90;;;;;;5008827;28;20505;-93
2021/01/25 05:47:59;;;;;;;21.55;13.45;;;0.40;99.90;;;;;;4962413;28;19968;-93
2021/01/25 05:50:45;;;;;;;20.80;11.52;;;0.40;99.90;;;;;;4928005;29;20108;-93
2021/01/25 05:53:15;;;;;;;22.52;13.23;;;0.50;99.90;;;;;;4960871;29;20435;-93
2021/01/25 05:55:42;;;;;;;23.63;13.27;;;0.50;99.90;;;;;;4981286;28;20040;-93
2021/01/25 05:58:08;;;;;;;20.17;13.05;;;0.50;99.90;;;;;;4973056;28;20027;-93
2021/01/25 06:00:36;;;;;;;23.05;13.10;;;0.50;99.90;;;;;;4971545;28;20091;-94
2021/01/25 06:03:14;;;;;;;28.17;14.27;;;0.50;99.90;;;;;;4979604;28;20043;-94
2021/01/25 06:05:44;;;;;;;23.65;13.90;;;0.50;99.90;;;;;;4973075;28;20019;-94
2021/01/25 06:08:47;;;;;;;24.75;14.05;;;0.50;99.90;;;;;;4964473;28;20023;-93
2021/01/25 06:11:30;;;;;;;21.42;13.02;;;0.50;99.90;;;;;;4982729;28;20020;-93
2021/01/25 06:14:21;;;;;;;25.40;14.50;;;0.50;99.90;;;;;;5003124;28;20047;-92
2021/01/25 06:16:49;;;;;;;22.25;13.13;;;0.50;99.90;;;;;;5012084;28;20031;-93
2021/01/25 06:19:22;;;;;;;24.20;13.73;;;0.60;99.90;;;;;;4984183;28;20121;-93
2021/01/25 06:21:51;;;;;;;24.02;14.48;;;0.50;99.90;;;;;;4985855;28;20109;-92
2021/01/25 06:24:21;;;;;;;21.92;14.30;;;0.70;99.90;;;;;;5005024;28;20049;-91
2021/01/25 06:26:55;;;;;;;25.38;15.75;;;0.60;99.90;;;;;;5039744;28;20034;-92
2021/01/25 06:29:20;;;;;;;24.23;14.80;;;0.60;99.90;;;;;;4988597;28;20040;-91
2021/01/25 06:31:56;;;;;;;29.55;14.98;;;0.60;99.90;;;;;;4958981;28;20472;-91
2021/01/25 06:34:23;;;;;;;31.25;15.55;;;0.50;99.90;;;;;;4960839;28;20043;-90
2021/01/25 06:36:57;;;;;;;24.30;15.10;;;0.60;99.90;;;;;;4941412;28;20085;-90
2021/01/25 06:39:28;;;;;;;25.17;16.13;;;0.60;99.90;;;;;;4961152;28;20035;-91
2021/01/25 06:42:04;;;;;;;28.25;15.00;;;0.70;99.90;;;;;;4943637;29;20141;-90
2021/01/25 06:44:33;;;;;;;24.67;15.55;;;0.60;99.90;;;;;;4942699;29;20211;-90
2021/01/25 06:47:02;;;;;;;27.42;15.23;;;0.70;99.90;;;;;;4948886;28;20094;-89
2021/01/25 06:49:31;;;;;;;30.88;17.40;;;0.80;99.90;;;;;;4949501;28;20042;-91
2021/01/25 06:51:58;;;;;;;26.80;17.08;;;0.80;99.90;;;;;;4930504;29;20054;-90
2021/01/25 06:54:26;;;;;;;32.85;17.02;;;1.30;99.90;;;;;;4950479;28;20071;-90
2021/01/25 06:56:59;;;;;;;25.73;15.35;;;1.20;99.90;;;;;;4946792;29;20035;-90
2021/01/25 06:59:32;;;;;;;27.20;18.13;;;0.80;99.90;;;;;;4953418;28;20046;-93
2021/01/25 07:01:59;;;;;;;27.75;16.92;;;0.80;99.90;;;;;;4991228;28;20030;-92
2021/01/25 07:04:26;;;;;;;24.65;15.38;;;0.80;99.90;;;;;;4989832;28;20037;-93
2021/01/25 07:06:57;;;;;;;25.55;16.40;;;0.90;99.90;;;;;;4985637;28;20026;-90
2021/01/25 07:09:36;;;;;;;27.20;15.73;;;0.90;99.90;;;;;;4989193;28;20022;-92
2021/01/25 07:12:16;;;;;;;27.83;17.48;;;0.90;99.90;;;;;;5006491;28;20092;-90
2021/01/25 07:14:43;;;;;;;23.83;14.90;;;0.90;99.90;;;;;;5001903;28;20057;-93
2021/01/25 07:17:19;;;;;;;24.10;15.15;;;1.20;99.90;;;;;;5019926;28;20017;-91
2021/01/25 07:19:45;;;;;;;29.73;15.90;;;0.90;99.90;;;;;;5002927;28;20029;-92
2021/01/25 07:22:12;;;;;;;27.38;16.90;;;0.90;99.90;;;;;;5002436;28;20038;-93
2021/01/25 07:24:47;;;;;;;22.80;14.25;;;0.50;99.90;;;;;;5002226;28;20045;-92
2021/01/25 07:27:15;;;;;;;26.25;15.07;;;0.80;99.90;;;;;;5002684;28;20038;-92
2021/01/25 07:29:45;;;;;;;27.45;17.23;;;1.70;99.90;;;;;;5017654;28;20019;-89
2021/01/25 07:32:12;;;;;;;29.80;16.13;;;0.80;99.90;;;;;;5002704;28;20073;-91
2021/01/25 07:34:38;;;;;;;23.77;14.82;;;0.80;99.90;;;;;;5001773;28;20097;-90
2021/01/25 07:37:13;;;;;;;27.30;16.05;;;0.80;99.90;;;;;;5196221;23;20113;-94
2021/01/25 07:39:43;;;;;;;40.05;17.75;;;0.70;99.90;;;;;;4954558;28;21090;-94
2021/01/25 07:42:10;;;;;;;31.15;16.75;;;0.90;99.90;;;;;;5001410;28;20041;-94
2021/01/25 07:44:37;;;;;;;30.80;17.52;;;2.00;99.90;;;;;;4968544;28;20111;-95
2021/01/25 07:47:04;;;;;;;23.48;14.32;;;0.50;99.90;;;;;;5017451;28;20020;-95
2021/01/25 07:49:37;;;;;;;26.90;16.42;;;0.90;99.90;;;;;;5085311;22;20045;-91
2021/01/25 07:52:03;;;;;;;29.52;16.08;;;0.90;99.90;;;;;;4995116;28;20038;-92
2021/01/25 07:54:33;;;;;;;25.85;14.00;;;0.90;99.90;;;;;;5007388;28;20054;-91
2021/01/25 07:56:59;;;;;;;25.48;16.13;;;1.80;99.90;;;;;;4993542;28;20045;-93
2021/01/25 09:10:00;;;;;;;26.83;14.15;;;1.50;99.90;;;;;;5976717;23;20025;-91
2021/01/25 09:22:37;;;;;;;;;;;;;;;;;;;;;
2021/01/25 09:25:08;;;;;;;24.95;14.45;;;1.60;99.90;;;;;;5030970;28;20037;-89
2021/01/25 09:27:36;;;;;;;25.50;14.27;;;1.60;99.90;;;;;;5003435;28;20077;-87
2021/01/25 09:30:10;;;;;;;26.92;15.45;;;1.60;99.90;;;;;;5019412;28;20026;-89
2021/01/25 09:32:40;;;;;;;25.50;14.38;;;1.60;99.90;;;;;;5035266;28;20049;-88
2021/01/25 09:35:38;;;;;;;22.95;14.55;;;1.50;99.90;;;;;;4995889;28;20027;-89
2021/01/25 09:38:03;;;;;;;28.55;14.98;;;1.60;99.90;;;;;;4916857;29;20028;-87
2021/01/25 09:40:34;;;;;;;30.85;15.95;;;1.80;99.90;;;;;;4917646;29;20051;-89
2021/01/25 09:43:03;;;;;;;25.45;14.88;;;1.70;99.90;;;;;;4914306;29;20035;-91
2021/01/25 09:46:06;;;;;;;30.00;17.30;;;1.60;99.90;;;;;;4916372;29;20059;-89
2021/01/25 09:48:36;;;;;;;28.20;17.83;;;1.30;99.90;;;;;;4919284;29;20040;-87
2021/01/25 09:51:18;;;;;;;;;;;1.60;99.90;;;;;;4922573;29;20032;-89
2021/01/25 09:54:04;;;;;;;27.48;17.02;;;1.60;99.90;;;;;;4918797;29;20000;-93
2021/01/25 09:56:41;;;;;;;30.60;15.48;;;1.70;99.90;;;;;;4912881;29;20123;-89
2021/01/25 10:06:07;;;;;;;27.33;14.77;;;2.00;99.90;;;;;;4852075;29;20099;-88
2021/01/25 10:08:54;;;;;;;;;;;;;;;;;;;;;
2021/01/25 10:11:27;;;;;;;23.52;14.07;;;2.30;99.90;;;;;;4884458;29;20104;-89
2021/01/25 10:17:04;;;;;;;26.70;15.50;;;2.70;99.90;;;;;;4872215;29;20026;-91
2021/01/25 10:20:15;;;;;;;23.33;14.82;;;2.70;99.90;;;;;;4835032;29;20094;-91
2021/01/25 10:22:44;;;;;;;21.52;13.73;;;2.80;99.90;;;;;;4828451;29;20050;-92
2021/01/25 10:25:14;;;;;;;24.33;13.95;;;2.60;99.90;;;;;;4815302;29;20045;-90
2021/01/25 10:27:41;;;;;;;25.38;15.43;;;2.60;99.90;;;;;;4817437;29;20039;-90
2021/01/25 10:30:25;;;;;;;;;;;;;;;;;;;;;
2021/01/25 10:33:28;;;;;;;22.15;14.30;;;2.50;99.90;;;;;;4833893;29;20054;-91
2021/01/25 10:35:54;;;;;;;26.55;13.60;;;2.50;99.90;;;;;;4826100;29;20102;-89
2021/01/25 10:38:56;;;;;;;25.42;14.57;;;2.30;99.90;;;;;;4830553;29;20486;-89
2021/01/25 10:42:35;;;;;;;;;;;;;;;;;;;;;
2021/01/25 10:46:28;;;;;;;;;;;;;;;;;;;;;
2021/01/25 10:53:22;;;;;;;;;;;;;;;;;;;;;
2021/01/25 10:56:17;;;;;;;19.90;13.02;;;2.60;99.90;;;;;;4847562;29;20105;-89
2021/01/25 10:59:30;;;;;;;24.55;13.20;;;2.70;99.90;;;;;;4878260;29;20147;-89
2021/01/25 11:02:02;;;;;;;14.80;9.57;;;2.80;99.90;;;;;;5139860;23;20029;-93
2021/01/25 11:05:23;;;;;;;;;;;;;;;;;;;;;
2021/01/25 11:17:05;;;;;;;25.15;14.27;;;2.90;99.90;;;;;;4961537;29;20055;-90
2021/01/25 11:26:44;;;;;;;21.33;14.18;;;2.80;99.90;;;;;;5052729;23;20050;-92
2021/01/25 11:29:30;;;;;;;;;;;;;;;;;;;;;
2021/01/25 11:32:14;;;;;;;20.90;13.32;;;3.10;99.90;;;;;;4986975;28;20253;-88
2021/01/25 11:35:11;;;;;;;;;;;;;;;;;;;;;
2021/01/25 11:37:45;;;;;;;19.67;12.80;;;3.00;99.90;;;;;;4959254;29;20027;-89
2021/01/25 11:40:50;;;;;;;25.95;13.70;;;3.10;99.90;;;;;;4929167;29;20576;-91
2021/01/25 11:43:33;;;;;;;16.65;11.52;;;3.20;99.90;;;;;;4944358;29;20445;-89
2021/01/25 11:46:02;;;;;;;22.65;12.85;;;3.30;99.90;;;;;;4932084;29;20462;-88
2021/01/25 11:48:48;;;;;;;24.20;14.40;;;3.30;99.90;;;;;;4933873;29;20047;-88
2021/01/25 11:51:21;;;;;;;27.40;14.95;;;2.70;99.90;;;;;;4917825;29;20447;-86
2021/01/25 11:54:10;;;;;;;20.58;13.15;;;3.40;99.90;;;;;;4904126;29;20063;-88
2021/01/25 11:56:56;;;;;;;23.23;15.15;;;3.50;99.90;;;;;;4926929;29;20063;-90
2021/01/25 11:59:29;;;;;;;25.50;13.93;;;3.60;99.90;;;;;;4932564;29;20055;-88
2021/01/25 12:01:59;;;;;;;22.75;14.20;;;3.60;99.90;;;;;;4931849;29;20063;-88
2021/01/25 12:04:26;;;;;;;23.13;15.10;;;3.50;99.90;;;;;;4930430;29;20106;-87
2021/01/25 12:06:54;;;;;;;24.10;15.38;;;3.50;99.90;;;;;;4941195;29;20062;-88
2021/01/25 12:09:39;;;;;;;24.70;14.45;;;3.60;99.90;;;;;;4957265;29;20054;-87
2021/01/25 12:12:06;;;;;;;29.15;14.45;;;3.50;99.90;;;;;;4958645;29;20040;-86
2021/01/25 12:14:36;;;;;;;22.45;14.40;;;3.50;99.90;;;;;;4953249;29;20027;-87
2021/01/25 12:17:02;;;;;;;25.73;15.30;;;3.50;99.90;;;;;;4972006;28;20027;-88
2021/01/25 12:19:36;;;;;;;25.60;13.70;;;3.40;99.90;;;;;;4965459;29;20123;-88
2021/01/25 12:22:07;;;;;;;25.63;14.05;;;3.30;99.90;;;;;;4951842;29;20028;-87
2021/01/25 12:24:34;;;;;;;22.58;14.55;;;3.20;99.90;;;;;;4943329;29;20082;-89
2021/01/25 12:27:01;;;;;;;22.83;14.13;;;3.10;99.90;;;;;;4923250;29;20464;-88
2021/01/25 12:29:40;;;;;;;24.02;14.82;;;2.50;99.90;;;;;;4952774;29;20027;-89
2021/01/25 12:32:06;;;;;;;26.60;16.15;;;2.60;99.90;;;;;;4931368;29;20080;-88
2021/01/25 12:37:07;;;;;;;26.88;16.02;;;2.80;99.90;;;;;;5192538;22;20153;-88
2021/01/25 12:39:32;;;;;;;28.95;15.77;;;2.80;99.90;;;;;;5036706;28;20010;-89
2021/01/25 12:42:04;;;;;;;32.88;17.98;;;2.90;99.90;;;;;;4997372;28;20066;-90
2021/01/25 12:44:31;;;;;;;25.23;16.00;;;2.80;99.90;;;;;;4986305;28;20427;-87
2021/01/25 12:47:00;;;;;;;31.10;17.98;;;3.50;99.90;;;;;;4958507;28;20035;-87
2021/01/25 12:49:30;;;;;;;25.20;15.80;;;2.90;99.90;;;;;;4957344;28;20058;-87
2021/01/25 12:52:11;;;;;;;28.63;16.17;;;3.50;99.90;;;;;;4987521;28;20031;-87
2021/01/25 12:54:48;;;;;;;27.38;16.70;;;2.80;99.90;;;;;;4966396;28;20081;-90
2021/01/25 12:57:17;;;;;;;32.53;18.38;;;2.70;99.90;;;;;;4953909;28;20031;-87
2021/01/25 13:00:21;;;;;;;30.33;17.98;;;2.70;99.90;;;;;;4970695;28;20029;-90
2021/01/25 13:02:47;;;;;;;26.58;18.25;;;2.70;99.90;;;;;;4979790;28;20023;-88
2021/01/25 13:05:22;;;;;;;29.30;17.45;;;2.70;99.90;;;;;;4926843;28;20069;-88
2021/01/25 13:07:51;;;;;;;30.77;19.77;;;2.70;99.90;;;;;;4943694;28;20177;-89
2021/01/25 13:10:35;;;;;;;29.65;17.27;;;2.90;99.90;;;;;;4973991;28;20187;-88
2021/01/25 13:13:05;;;;;;;30.25;18.73;;;3.00;99.90;;;;;;4977371;28;20099;-88
2021/01/25 13:15:43;;;;;;;26.40;17.67;;;3.80;99.90;;;;;;4989736;28;20531;-88
2021/01/25 13:18:17;;;;;;;27.42;17.42;;;3.30;99.90;;;;;;4997653;28;20112;-88
2021/01/25 13:20:44;;;;;;;35.30;18.40;;;3.30;99.90;;;;;;5001730;28;20117;-88
2021/01/25 13:23:23;;;;;;;28.83;16.85;;;3.40;99.90;;;;;;5004883;28;20482;-86
2021/01/25 13:25:49;;;;;;;25.35;17.45;;;3.60;99.90;;;;;;5028801;28;20026;-85
2021/01/25 13:28:17;;;;;;;29.67;16.63;;;3.60;99.90;;;;;;4990133;28;20347;-84
2021/01/25 13:30:47;;;;;;;28.00;18.50;;;4.00;99.90;;;;;;5016402;28;20084;-87
2021/01/25 13:33:12;;;;;;;35.53;18.73;;;3.70;99.90;;;;;;4998539;28;20033;-88
2021/01/25 13:36:04;;;;;;;27.25;18.33;;;3.40;99.90;;;;;;5011792;28;20042;-88
2021/01/25 13:38:31;;;;;;;30.73;18.30;;;3.40;99.90;;;;;;4932276;29;20039;-85
2021/01/25 13:41:01;;;;;;;30.48;17.95;;;3.50;99.90;;;;;;4938339;29;20031;-87
2021/01/25 13:43:48;;;;;;;31.27;17.93;;;3.50;99.90;;;;;;4916688;29;20043;-87
2021/01/25 13:46:14;;;;;;;28.90;18.75;;;3.60;99.90;;;;;;4932920;29;20043;-88
2021/01/25 13:48:57;;;;;;;30.35;19.55;;;3.70;99.90;;;;;;4948400;29;20028;-86
2021/01/25 13:51:25;;;;;;;31.02;19.23;;;3.70;99.90;;;;;;4951507;29;20030;-89
2021/01/25 13:53:51;;;;;;;24.23;17.73;;;3.60;99.90;;;;;;4956088;29;20055;-89
2021/01/25 13:56:17;;;;;;;25.58;16.52;;;3.70;99.90;;;;;;4955763;29;20046;-88
2021/01/25 13:58:44;;;;;;;21.02;15.10;;;3.70;99.90;;;;;;4938553;29;20024;-87
2021/01/25 14:01:11;;;;;;;22.50;15.85;;;3.70;99.90;;;;;;4938038;29;20095;-87
2021/01/25 14:04:13;;;;;;;25.90;16.23;;;3.70;99.90;;;;;;4931741;29;20084;-88
2021/01/25 14:06:39;;;;;;;20.63;15.05;;;3.70;99.90;;;;;;4925784;29;20436;-86
2021/01/25 14:09:05;;;;;;;18.45;13.38;;;3.60;99.90;;;;;;4919741;29;20047;-88
2021/01/25 14:11:32;;;;;;;22.85;15.30;;;3.70;99.90;;;;;;4943083;29;20043;-88
2021/01/25 14:13:58;;;;;;;20.73;13.75;;;3.80;99.90;;;;;;4921689;29;20043;-86
2021/01/25 14:16:30;;;;;;;23.67;13.88;;;4.50;99.90;;;;;;5141095;23;20026;-86
2021/01/25 14:18:56;;;;;;;21.17;14.45;;;3.90;99.90;;;;;;4993406;28;20069;-86
2021/01/25 14:21:24;;;;;;;22.40;15.65;;;3.40;99.90;;;;;;5014558;28;20060;-87
2021/01/25 14:23:50;;;;;;;22.20;15.10;;;3.50;99.90;;;;;;4974770;28;20031;-87
2021/01/25 14:26:35;;;;;;;20.08;15.20;;;3.60;99.90;;;;;;4987389;28;20153;-88
2021/01/25 14:29:04;;;;;;;25.58;15.30;;;3.30;99.90;;;;;;5007337;28;20159;-89
2021/01/25 14:31:35;;;;;;;25.67;15.98;;;3.70;99.90;;;;;;4989298;28;20600;-88
2021/01/25 14:34:04;;;;;;;23.85;15.25;;;3.70;99.90;;;;;;4988014;28;20125;-88
2021/01/25 14:36:31;;;;;;;22.20;14.50;;;3.80;99.90;;;;;;5001770;28;20351;-87
2021/01/25 14:39:01;;;;;;;25.58;16.58;;;3.70;99.90;;;;;;4982441;28;20054;-89
2021/01/25 14:42:17;;;;;;;22.90;14.68;;;3.70;99.90;;;;;;4990758;28;20077;-92
2021/01/25 14:44:46;;;;;;;22.15;13.60;;;3.40;99.90;;;;;;5006467;28;20026;-90
2021/01/25 14:47:18;;;;;;;22.83;15.18;;;3.10;99.90;;;;;;4993005;28;20097;-90
2021/01/25 14:49:46;;;;;;;23.17;15.23;;;3.30;99.90;;;;;;5021771;28;20013;-88
2021/01/25 14:52:14;;;;;;;23.20;15.15;;;3.10;99.90;;;;;;5012706;28;20018;-91
2021/01/25 14:54:43;;;;;;;20.92;13.48;;;3.10;99.90;;;;;;4986973;28;20038;-89
2021/01/25 14:57:26;;;;;;;;;;;;;;;;;;;;;
2021/01/25 15:00:06;;;;;;;19.80;14.48;;;2.90;99.90;;;;;;5040863;28;20048;-91
2021/01/25 15:02:35;;;;;;;21.25;13.25;;;2.90;99.90;;;;;;5061382;28;20036;-91
2021/01/25 15:05:01;;;;;;;21.77;14.43;;;2.70;99.90;;;;;;5041063;28;20060;-88
2021/01/25 15:07:30;;;;;;;22.20;14.18;;;2.70;99.90;;;;;;5046978;28;20018;-88
2021/01/25 15:10:08;;;;;;;19.52;13.27;;;2.70;99.90;;;;;;5023324;28;20064;-87
2021/01/25 15:12:36;;;;;;;22.88;14.05;;;2.70;99.90;;;;;;5026529;28;20033;-88
2021/01/25 15:15:08;;;;;;;23.30;13.77;;;2.70;99.90;;;;;;5018074;28;20499;-91
2021/01/25 15:17:48;;;;;;;22.42;13.32;;;2.40;99.90;;;;;;5015768;28;20174;-90
2021/01/25 15:20:30;;;;;;;25.08;15.88;;;2.50;99.90;;;;;;5030283;28;20080;-87